Time;durP1;ratioP1;P1;durP2;ratioP2;P2;SDS_P1;SDS_P2;PMS_P1;PMS_P2;Temp;Humidity;BMP_temperature;BMP_pressure;BME280_temperature;BME280_humidity;BME280_pressure;Samples;Min_cycle;Max_cycle;Signal;HPM_P1;HPM_P2
2022/09/25 00:01:21;;;;;;;45.07;26.50;;;;;;;14.28;100.00;100357.13;8285061;28;20510;-52
2022/09/25 00:05:21;;;;;;;47.97;26.05;;;;;;;14.29;100.00;100356.97;8290002;28;20289;-54
2022/09/25 00:09:22;;;;;;;47.33;26.40;;;;;;;14.29;100.00;100356.97;8287279;28;20492;-53
2022/09/25 00:13:23;;;;;;;43.17;24.88;;;;;;;14.31;100.00;100360.38;8258734;28;20376;-50
2022/09/25 00:17:24;;;;;;;46.58;26.13;;;;;;;14.30;100.00;100361.38;8258117;28;20064;-52
2022/09/25 00:21:29;;;;;;;48.83;26.08;;;;;;;14.29;100.00;100361.53;8258156;28;20034;-50
2022/09/25 00:25:30;;;;;;;50.10;26.48;;;;;;;14.32;100.00;100355.75;8258404;28;20030;-50
2022/09/25 00:29:30;;;;;;;47.72;26.50;;;;;;;14.33;100.00;100357.47;8274208;28;20033;-52
2022/09/25 00:33:31;;;;;;;52.47;28.43;;;;;;;14.36;100.00;100352.53;8289252;28;20037;-50
2022/09/25 00:37:34;;;;;;;61.92;32.00;;;;;;;14.38;100.00;100347.78;8289164;28;20311;-54
2022/09/25 00:41:34;;;;;;;60.83;33.08;;;;;;;14.38;100.00;100350.50;8263426;28;20030;-53
2022/09/25 00:45:35;;;;;;;64.85;33.47;;;;;;;14.40;100.00;100348.47;8258186;28;20034;-51
2022/09/25 00:49:35;;;;;;;64.05;33.88;;;;;;;14.46;100.00;100353.25;8256755;28;20026;-54
2022/09/25 00:53:39;;;;;;;67.45;36.28;;;;;;;14.46;100.00;100355.97;8257206;28;20499;-54
2022/09/25 00:57:45;;;;;;;65.32;35.15;;;;;;;14.48;100.00;100356.63;8262431;28;20042;-50
2022/09/25 01:01:46;;;;;;;61.65;35.85;;;;;;;14.49;100.00;100352.88;8287461;28;20030;-50
2022/09/25 01:05:48;;;;;;;66.85;36.03;;;;;;;14.50;100.00;100349.16;8288260;28;20034;-54
2022/09/25 01:09:48;;;;;;;66.10;36.20;;;;;;;14.52;100.00;100352.53;8282479;28;20038;-50
2022/09/25 01:13:54;;;;;;;61.00;35.90;;;;;;;14.47;100.00;100349.50;8257584;28;20046;-52
2022/09/25 01:18:04;;;;;;;58.65;33.97;;;;;;;14.48;100.00;100351.19;8256278;28;20290;-51
2022/09/25 01:22:39;;;;;;;57.45;33.58;;;;;;;14.49;100.00;100352.88;8255075;28;20086;-51
2022/09/25 01:26:59;;;;;;;58.80;32.65;;;;;;;14.49;100.00;100352.03;8255532;28;20673;-52
2022/09/25 01:31:08;;;;;;;54.35;31.20;;;;;;;14.43;100.00;100350.88;8283413;28;20033;-51
2022/09/25 01:39:36;;;;;;;52.95;28.13;;;;;;;14.44;100.00;100360.72;8324980;27;20482;-52
2022/09/25 01:43:43;;;;;;;50.55;29.40;;;;;;;14.39;100.00;100352.19;8317108;28;20766;-50
2022/09/25 01:47:49;;;;;;;48.33;26.80;;;;;;;14.39;100.00;100360.34;8316988;28;20095;-51
2022/09/25 01:51:52;;;;;;;43.78;25.58;;;;;;;14.37;100.00;100359.69;8317371;28;20041;-52
2022/09/25 01:56:00;;;;;;;50.00;25.50;;;;;;;14.38;100.00;100365.97;8316483;28;20357;-52
2022/09/25 02:00:14;;;;;;;44.85;25.25;;;;;;;14.36;100.00;100374.28;8345292;28;20222;-53
2022/09/25 02:09:24;;;;;;;42.77;24.17;;;;;;;14.33;100.00;100358.31;8303133;28;20049;-49
2022/09/25 02:13:33;;;;;;;37.95;22.13;;;;;;;14.32;100.00;100359.34;8346465;28;20033;-49
2022/09/25 02:22:22;;;;;;;32.05;21.15;;;;;;;14.24;100.00;100353.88;8348688;28;20045;-50
2022/09/25 02:26:28;;;;;;;45.28;20.60;;;;;;;14.25;100.00;100361.03;8349019;28;20095;-48
2022/09/25 02:30:29;;;;;;;41.63;20.95;;;;;;;14.24;100.00;100369.38;8344338;28;20033;-48
2022/09/25 02:34:31;;;;;;;34.67;19.02;;;;;;;14.24;100.00;100355.78;8339426;28;20044;-49
2022/09/25 02:38:33;;;;;;;28.73;16.55;;;;;;;14.21;100.00;100370.50;8309460;28;20038;-50
2022/09/25 02:42:53;;;;;;;25.60;13.93;;;;;;;14.19;100.00;100372.56;8314539;28;20056;-51
2022/09/25 02:55:41;;;;;;;32.10;12.45;;;;;;;14.21;100.00;100365.06;8355734;27;20529;-49
2022/09/25 02:59:47;;;;;;;20.85;10.82;;;;;;;14.18;100.00;100353.69;8328203;28;20503;-47
2022/09/25 03:03:50;;;;;;;21.98;9.70;;;;;;;14.19;100.00;100361.69;8315936;28;20038;-47
2022/09/25 03:08:55;;;;;;;23.00;9.85;;;;;;;14.16;100.00;100362.00;8316602;28;20474;-48
2022/09/25 03:12:13;;;;;;;23.10;10.15;;;;;;;14.19;100.00;100367.13;8330369;28;20034;-48
2022/09/25 03:16:38;;;;;;;22.65;9.55;;;;;;;14.16;100.00;100367.44;8299134;28;20036;-47
2022/09/25 03:20:39;;;;;;;23.20;10.35;;;;;;;14.13;100.00;100367.78;8349900;28;20036;-47
2022/09/25 03:24:39;;;;;;;24.90;10.63;;;;;;;14.13;100.00;100367.78;8349709;28;20498;-48
2022/09/25 03:28:40;;;;;;;21.33;9.82;;;;;;;14.08;100.00;100374.72;8349273;28;20445;-48
2022/09/25 03:32:41;;;;;;;20.45;9.80;;;;;;;14.07;100.00;100368.44;8349982;28;20490;-48
2022/09/25 03:36:41;;;;;;;22.25;10.18;;;;;;;14.05;100.00;100373.19;8338873;28;20392;-48
2022/09/25 03:40:42;;;;;;;22.05;10.02;;;;;;;13.99;100.00;100371.13;8316960;28;20038;-48
2022/09/25 03:44:43;;;;;;;17.10;9.88;;;;;;;13.97;100.00;100372.31;8316304;28;20507;-50
2022/09/25 03:48:43;;;;;;;23.15;10.38;;;;;;;13.92;100.00;100372.81;8314299;28;20403;-49
2022/09/25 03:52:44;;;;;;;21.45;11.65;;;;;;;13.92;100.00;100370.09;8347530;28;20071;-49
2022/09/25 03:56:44;;;;;;;16.38;9.55;;;;;;;13.84;100.00;100380.94;8348404;28;20041;-49
2022/09/25 04:00:46;;;;;;;21.40;10.13;;;;;;;13.79;100.00;100381.44;8348409;28;20125;-49
2022/09/25 04:04:46;;;;;;;17.23;9.52;;;;;;;13.67;100.00;100379.19;8337273;28;20052;-49
2022/09/25 04:08:47;;;;;;;22.65;10.35;;;;;;;13.61;100.00;100375.25;8325401;28;20488;-49
2022/09/25 04:12:53;;;;;;;20.08;9.02;;;;;;;13.52;100.00;100373.53;8294104;28;20072;-51
2022/09/25 04:16:53;;;;;;;26.25;9.00;;;;;;;13.50;100.00;100369.25;8325426;28;20536;-49
2022/09/25 04:20:54;;;;;;;16.25;8.25;;;;;;;13.48;100.00;100371.31;8325248;28;20056;-50
2022/09/25 04:24:54;;;;;;;27.47;6.37;;;;;;;13.49;100.00;100370.28;8325273;28;20041;-50
2022/09/25 04:28:54;;;;;;;18.10;5.43;;;;;;;13.54;100.00;100370.63;8305103;28;20355;-49
2022/09/25 04:33:55;;;;;;;10.00;4.82;;;;;;;13.55;100.00;100375.88;8293494;28;20046;-51
2022/09/25 04:37:15;;;;;;;18.35;4.82;;;;;;;13.57;100.00;100370.28;8293073;28;20395;-48
2022/09/25 04:41:18;;;;;;;17.05;4.35;;;;;;;13.58;100.00;100380.16;8293125;28;20313;-48
2022/09/25 04:45:18;;;;;;;14.80;4.70;;;;;;;13.63;100.00;100380.50;8292289;28;20030;-48
2022/09/25 04:49:19;;;;;;;19.20;4.43;;;;;;;13.67;100.00;100381.91;8287459;28;20034;-51
2022/09/25 04:53:19;;;;;;;17.00;4.20;;;;;;;13.66;100.00;100386.47;8324939;28;20071;-48
2022/09/25 04:57:20;;;;;;;14.75;4.00;;;;;;;13.64;100.00;100384.94;8324857;28;20159;-49
2022/09/25 05:01:21;;;;;;;14.98;4.63;;;;;;;13.64;100.00;100387.66;8323829;28;20030;-48
2022/09/25 05:05:28;;;;;;;20.13;5.75;;;;;;;13.66;100.00;100380.19;8324537;28;20556;-51
2022/09/25 05:09:29;;;;;;;13.80;5.50;;;;;;;13.64;100.00;100382.22;8292119;28;20038;-48
2022/09/25 05:13:30;;;;;;;14.82;4.72;;;;;;;13.63;100.00;100394.94;8292627;28;20495;-48
2022/09/25 05:17:30;;;;;;;16.90;6.00;;;;;;;13.54;100.00;100387.78;8290629;28;20453;-51
2022/09/25 05:21:31;;;;;;;19.27;5.77;;;;;;;13.58;100.00;100394.56;8291818;28;20038;-49
2022/09/25 05:25:32;;;;;;;17.42;6.05;;;;;;;13.54;100.00;100403.22;8284745;28;20657;-50
2022/09/25 05:29:32;;;;;;;19.77;6.43;;;;;;;13.54;100.00;100397.78;8291731;28;20105;-48
2022/09/25 05:33:34;;;;;;;15.77;6.25;;;;;;;13.49;100.00;100400.16;8291836;28;20033;-50
2022/09/25 05:37:34;;;;;;;16.25;5.80;;;;;;;13.44;100.00;100392.50;8291404;28;20038;-49
2022/09/25 05:41:35;;;;;;;19.77;6.07;;;;;;;13.51;100.00;100392.72;8291210;28;20059;-49
2022/09/25 05:45:35;;;;;;;19.40;5.25;;;;;;;13.47;100.00;100396.75;8290276;28;20030;-48
2022/09/25 05:49:36;;;;;;;18.05;5.72;;;;;;;13.44;100.00;100400.63;8288951;28;20030;-50
2022/09/25 05:53:37;;;;;;;16.80;5.47;;;;;;;13.44;100.00;100391.63;8321612;28;20065;-50
2022/09/25 05:57:37;;;;;;;14.38;5.70;;;;;;;13.42;100.00;100399.09;8312224;28;20128;-48
2022/09/25 06:01:38;;;;;;;15.40;5.22;;;;;;;13.44;100.00;100403.34;8323166;28;20402;-49
2022/09/25 06:05:39;;;;;;;14.53;5.33;;;;;;;13.42;100.00;100399.09;8323033;28;20041;-48
2022/09/25 06:09:40;;;;;;;18.75;5.82;;;;;;;13.41;100.00;100409.09;8323278;28;20347;-48
2022/09/25 06:13:44;;;;;;;19.50;6.10;;;;;;;13.43;100.00;100411.66;8323506;28;20188;-48
2022/09/25 06:17:45;;;;;;;14.70;4.90;;;;;;;13.45;100.00;100417.78;8322103;28;20041;-48
2022/09/25 06:21:46;;;;;;;17.67;5.63;;;;;;;13.50;100.00;100412.72;8323038;28;20084;-48
2022/09/25 06:25:46;;;;;;;18.15;5.68;;;;;;;13.46;100.00;100411.34;8320856;28;20080;-51
2022/09/25 06:29:47;;;;;;;19.47;5.57;;;;;;;13.44;100.00;100419.66;8322164;28;20033;-54
2022/09/25 06:33:50;;;;;;;15.27;5.72;;;;;;;13.52;100.00;100427.00;8340126;28;20629;-54
2022/09/25 06:37:50;;;;;;;14.20;4.50;;;;;;;13.57;100.00;100424.63;8352318;28;20041;-54
2022/09/25 06:41:52;;;;;;;12.30;4.85;;;;;;;13.60;100.00;100427.00;8327342;28;20073;-51
2022/09/25 06:45:53;;;;;;;17.70;4.90;;;;;;;13.66;100.00;100429.09;8321170;28;20519;-51
2022/09/25 06:49:53;;;;;;;16.73;4.30;;;;;;;13.79;100.00;100434.94;8325113;28;20454;-55
2022/09/25 06:53:54;;;;;;;19.87;5.03;;;;;;;13.93;100.00;100441.63;8304519;28;20060;-52
2022/09/25 06:57:55;;;;;;;8.73;3.55;;;;;;;13.93;100.00;100442.47;8314141;28;20363;-48
2022/09/25 07:03:43;;;;;;;10.95;3.53;;;;;;;14.00;100.00;100448.94;8287470;28;20040;-49
2022/09/25 07:06:19;;;;;;;15.90;3.22;;;;;;;14.13;100.00;100448.47;8295612;28;20053;-48
2022/09/25 07:10:20;;;;;;;;;;;;;;;14.10;100.00;100455.13;8312999;28;20064;-51
2022/09/25 07:14:20;;;;;;;16.17;2.80;;;;;;;14.27;100.00;100456.88;8319423;28;19917;-48
2022/09/25 07:18:22;;;;;;;16.70;2.85;;;;;;;14.32;100.00;100449.09;8319762;28;20614;-49
2022/09/25 07:22:22;;;;;;;13.00;2.85;;;;;;;14.37;100.00;100457.59;8282191;28;20030;-47
2022/09/25 07:26:27;;;;;;;13.05;3.28;;;;;;;14.40;100.00;100453.69;8288583;28;20033;-48
2022/09/25 07:30:28;;;;;;;;;;;;;;;14.39;100.00;100461.00;8280623;28;20046;-49
2022/09/25 07:34:28;;;;;;;13.02;3.03;;;;;;;14.60;100.00;100450.50;8288623;28;20383;-53
2022/09/25 07:38:29;;;;;;;9.77;2.38;;;;;;;14.70;100.00;100459.34;8288774;28;20038;-53
2022/09/25 07:42:29;;;;;;;10.90;2.60;;;;;;;14.89;100.00;100453.59;8295017;28;20044;-53
2022/09/25 07:46:30;;;;;;;9.20;2.53;;;;;;;15.01;100.00;100456.81;8291487;28;20042;-54
2022/09/25 07:50:32;;;;;;;16.17;3.08;;;;;;;15.09;99.29;100459.53;8325645;28;20298;-53
2022/09/25 07:54:35;;;;;;;19.35;2.88;;;;;;;15.22;98.46;100460.72;8327533;28;20124;-55
2022/09/25 07:58:35;;;;;;;11.05;2.47;;;;;;;15.36;99.03;100446.41;8326902;28;20028;-51
2022/09/25 08:02:36;;;;;;;11.80;2.55;;;;;;;15.15;98.52;100456.97;8325270;28;20539;-53
2022/09/25 08:06:37;;;;;;;13.02;2.75;;;;;;;15.02;99.98;100459.38;8328481;28;20034;-51
2022/09/25 08:10:37;;;;;;;13.65;2.85;;;;;;;14.98;100.00;100463.44;8313437;28;20035;-52
2022/09/25 08:14:38;;;;;;;10.18;2.53;;;;;;;14.72;100.00;100468.22;8324303;28;20045;-51
2022/09/25 08:18:40;;;;;;;15.93;2.92;;;;;;;14.66;100.00;100463.44;8324262;28;20065;-51
2022/09/25 08:22:41;;;;;;;13.35;2.60;;;;;;;14.56;100.00;100462.75;8324799;28;20487;-53
2022/09/25 08:26:41;;;;;;;15.93;3.78;;;;;;;14.86;100.00;100462.09;8322556;28;20453;-54
2022/09/25 08:30:42;;;;;;;16.92;3.13;;;;;;;15.70;99.05;100466.13;8323590;28;20087;-52
2022/09/25 08:34:43;;;;;;;17.45;3.53;;;;;;;15.64;93.79;100463.22;8323978;28;20056;-53
2022/09/25 08:38:44;;;;;;;15.13;3.13;;;;;;;15.92;92.07;100455.50;8323842;28;20391;-49
2022/09/25 08:42:48;;;;;;;10.73;2.85;;;;;;;15.92;90.58;100464.50;8340713;28;20394;-52
2022/09/25 08:51:15;;;;;;;11.07;2.53;;;;;;;16.06;89.25;100474.69;8323529;28;20338;-50
2022/09/25 08:56:13;;;;;;;14.25;2.63;;;;;;;16.09;86.90;100473.47;8322396;28;20120;-51
2022/09/25 08:59:50;;;;;;;13.57;2.45;;;;;;;16.17;87.20;100468.00;8287839;28;20112;-51
2022/09/25 09:04:17;;;;;;;14.40;2.70;;;;;;;16.96;85.75;100466.66;8295594;28;20049;-49
2022/09/25 09:08:24;;;;;;;10.00;2.05;;;;;;;16.94;81.66;100463.28;8319435;28;20514;-51
2022/09/25 09:12:41;;;;;;;11.07;1.88;;;;;;;17.36;79.75;100474.50;8325613;28;20041;-50
2022/09/25 09:17:04;;;;;;;15.68;2.80;;;;;;;18.34;78.09;100472.41;8305999;28;20022;-53
2022/09/25 09:21:21;;;;;;;15.57;2.55;;;;;;;18.59;73.88;100474.63;8318956;28;20041;-50
2022/09/25 09:29:51;;;;;;;10.98;2.60;;;;;;;18.07;73.15;100473.94;8284814;28;20421;-52
2022/09/25 09:34:18;;;;;;;12.63;2.28;;;;;;;17.56;74.52;100470.25;8268482;28;20146;-49
2022/09/25 09:38:45;;;;;;;6.57;1.48;;;;;;;16.81;76.11;100473.09;8269086;28;20050;-51
2022/09/25 09:43:11;;;;;;;7.63;2.50;;;;;;;17.60;75.33;100465.25;8278582;28;20038;-49
2022/09/25 09:47:46;;;;;;;9.95;1.50;;;;;;;16.66;75.91;100481.22;8268211;28;20038;-50
2022/09/25 09:51:56;;;;;;;13.73;1.90;;;;;;;16.29;78.25;100469.28;8282121;28;20700;-49
2022/09/25 09:56:03;;;;;;;9.43;2.33;;;;;;;17.31;74.15;100465.16;8259465;28;20043;-51
2022/09/25 10:00:12;;;;;;;6.68;1.75;;;;;;;19.69;68.47;100452.06;8261562;28;20490;-53
2022/09/25 10:04:17;;;;;;;8.73;1.60;;;;;;;21.14;59.46;100456.06;8254418;28;20042;-49
2022/09/25 10:08:18;;;;;;;9.68;2.15;;;;;;;20.33;59.84;100455.41;8278816;28;20408;-54
2022/09/25 10:12:28;;;;;;;11.25;1.80;;;;;;;20.09;61.97;100443.00;8290022;28;20061;-54
2022/09/25 10:16:29;;;;;;;5.20;1.80;;;;;;;21.31;60.63;100446.34;8252377;28;20342;-54
2022/09/25 10:20:40;;;;;;;10.25;1.83;;;;;;;21.97;57.39;100446.28;8262611;28;20038;-53
2022/09/25 10:24:50;;;;;;;6.45;1.88;;;;;;;22.52;57.99;100441.03;8270326;28;20100;-54
2022/09/25 10:28:51;;;;;;;5.63;1.55;;;;;;;23.45;54.09;100453.16;8259108;28;20535;-52
2022/09/25 10:33:01;;;;;;;4.57;1.50;;;;;;;23.41;55.94;100461.03;8288093;28;20136;-52
2022/09/25 10:37:18;;;;;;;7.25;1.83;;;;;;;22.83;57.89;100451.25;8255213;28;20047;-52
2022/09/25 10:41:20;;;;;;;8.73;1.73;;;;;;;19.35;62.30;100454.75;8257912;28;20202;-53
2022/09/25 10:50:16;;;;;;;11.77;2.45;;;;;;;17.51;69.23;100441.78;8292839;28;20393;-50
2022/09/25 10:54:12;;;;;;;7.88;2.38;;;;;;;18.35;64.05;100444.81;8271660;28;20407;-53
2022/09/25 10:58:20;;;;;;;5.72;1.60;;;;;;;18.52;62.90;100443.59;8278607;28;20048;-51
2022/09/25 11:02:33;;;;;;;5.15;1.30;;;;;;;19.24;60.76;100434.19;8281541;28;20096;-54
2022/09/25 11:06:34;;;;;;;4.22;1.60;;;;;;;18.89;63.13;100429.66;8280979;28;20061;-51
2022/09/25 11:10:46;;;;;;;4.07;1.60;;;;;;;18.91;65.54;100430.28;8281434;28;20104;-52
2022/09/25 11:14:56;;;;;;;4.75;1.92;;;;;;;18.17;65.21;100447.13;8281688;28;20133;-51
2022/09/25 11:19:10;;;;;;;3.67;1.13;;;;;;;17.84;64.74;100448.56;8277681;28;20042;-53
2022/09/25 11:23:28;;;;;;;6.90;1.43;;;;;;;17.78;65.21;100449.31;8281534;28;20038;-53
2022/09/25 11:27:41;;;;;;;6.35;1.42;;;;;;;17.86;66.04;100438.28;8273363;28;20057;-53
2022/09/25 11:31:50;;;;;;;4.80;1.77;;;;;;;18.32;63.13;100439.72;8270953;28;20042;-51
2022/09/25 11:41:28;;;;;;;5.95;1.05;;;;;;;21.39;56.85;100437.03;8330559;27;20407;-50
2022/09/25 11:44:59;;;;;;;7.53;1.10;;;;;;;22.87;53.74;100434.03;8323008;28;20034;-49
2022/09/25 11:49:12;;;;;;;5.22;1.00;;;;;;;21.82;53.87;100420.91;8320111;28;20111;-52
2022/09/25 11:53:32;;;;;;;3.00;0.98;;;;;;;19.78;57.86;100417.06;8315538;28;20066;-53
2022/09/25 11:58:13;;;;;;;7.90;1.33;;;;;;;19.26;59.88;100423.91;8316767;28;20038;-52
2022/09/25 12:06:53;;;;;;;5.03;1.23;;;;;;;19.49;58.54;100402.56;8287718;28;20389;-50
2022/09/25 12:11:14;;;;;;;5.70;1.00;;;;;;;20.80;58.84;100403.16;8282545;28;20045;-51
2022/09/25 12:15:54;;;;;;;5.10;1.20;;;;;;;19.44;63.05;100399.59;8282386;28;20045;-51
2022/09/25 12:20:19;;;;;;;5.25;0.80;;;;;;;18.10;63.94;100407.88;8282314;28;20054;-51
2022/09/25 12:24:41;;;;;;;5.68;1.13;;;;;;;17.54;66.25;100401.22;8281436;28;20039;-51
2022/09/25 12:29:14;;;;;;;6.18;1.05;;;;;;;20.94;56.66;100388.34;8280366;28;20096;-51
2022/09/25 12:33:33;;;;;;;3.63;0.63;;;;;;;23.29;51.89;100390.28;8276970;28;20042;-51
2022/09/25 12:37:57;;;;;;;2.70;0.82;;;;;;;21.82;50.18;100388.75;8276824;28;20505;-51
2022/09/25 12:42:09;;;;;;;2.75;0.50;;;;;;;21.25;53.71;100380.34;8275993;28;20557;-55
2022/09/25 12:46:26;;;;;;;3.15;0.90;;;;;;;19.44;55.81;100385.03;8268790;28;20046;-52
2022/09/25 12:50:33;;;;;;;1.50;0.70;;;;;;;18.72;57.77;100381.66;8273270;28;20597;-50
2022/09/25 12:54:51;;;;;;;3.28;0.90;;;;;;;18.89;58.15;100383.09;8275637;28;20406;-54
2022/09/25 12:59:22;;;;;;;5.22;0.90;;;;;;;18.81;60.05;100380.47;8276203;28;20042;-54
2022/09/25 13:03:47;;;;;;;2.60;0.50;;;;;;;18.43;63.39;100365.38;8289541;28;20167;-50
2022/09/25 13:07:54;;;;;;;4.68;0.70;;;;;;;18.16;61.60;100360.59;8279421;28;20346;-52
2022/09/25 13:12:03;;;;;;;3.58;0.57;;;;;;;18.18;61.74;100355.78;8269992;28;20038;-52
2022/09/25 13:16:04;;;;;;;8.00;0.77;;;;;;;18.92;60.94;100348.97;8262001;28;20460;-51
2022/09/25 13:24:44;;;;;;;2.55;0.57;;;;;;;18.04;59.71;100353.94;8299286;28;20405;-52
2022/09/25 13:29:12;;;;;;;5.10;0.55;;;;;;;17.67;59.77;100347.75;8277879;28;20038;-51
2022/09/25 13:33:19;;;;;;;3.78;0.60;;;;;;;17.50;61.47;100333.44;8280975;28;20113;-52
2022/09/25 13:37:30;;;;;;;1.52;0.47;;;;;;;17.72;59.33;100327.03;8275422;28;20034;-54
2022/09/25 13:41:31;;;;;;;4.03;0.73;;;;;;;17.93;59.85;100335.28;8272607;28;20132;-52
2022/09/25 13:45:33;;;;;;;4.60;0.80;;;;;;;18.47;61.39;100328.34;8276966;28;20078;-51
2022/09/25 13:49:34;;;;;;;4.15;0.63;;;;;;;18.21;60.28;100317.06;8274989;28;20273;-51
2022/09/25 13:53:57;;;;;;;5.15;0.50;;;;;;;18.38;60.31;100315.81;8278991;28;20034;-52
2022/09/25 14:02:37;;;;;;;2.00;0.40;;;;;;;18.71;61.04;100314.22;8282468;28;20807;-50
2022/09/25 14:06:40;;;;;;;1.90;0.50;;;;;;;19.04;61.81;100312.59;8276444;28;20049;-50
2022/09/25 14:10:47;;;;;;;2.40;0.63;;;;;;;18.84;59.55;100314.34;8265595;28;20790;-50
2022/09/25 14:14:55;;;;;;;5.15;0.63;;;;;;;18.98;60.83;100316.16;8282030;28;20026;-50
2022/09/25 14:18:57;;;;;;;4.25;0.63;;;;;;;18.59;60.58;100310.34;8281415;28;20459;-49
2022/09/25 14:23:04;;;;;;;7.63;0.80;;;;;;;18.60;60.97;100311.19;8282433;28;20065;-51
2022/09/25 14:27:18;;;;;;;3.90;0.60;;;;;;;18.53;63.20;100305.63;8274192;28;20411;-50
2022/09/25 14:31:42;;;;;;;3.30;0.60;;;;;;;18.27;63.83;100299.88;8262458;28;20052;-50
2022/09/25 14:35:56;;;;;;;4.78;0.60;;;;;;;17.93;63.46;100307.91;8277429;28;20042;-50
2022/09/25 14:44:48;;;;;;;6.50;0.70;;;;;;;17.74;67.55;100300.31;8333598;27;20768;-50
2022/09/25 14:48:53;;;;;;;4.90;0.75;;;;;;;17.89;64.44;100301.16;8309047;28;20041;-49
2022/09/25 14:52:58;;;;;;;3.30;0.50;;;;;;;17.95;64.61;100307.72;8308946;28;20065;-51
2022/09/25 14:57:00;;;;;;;4.18;0.55;;;;;;;18.24;62.25;100289.31;8317478;28;20094;-50
2022/09/25 15:01:13;;;;;;;2.05;0.43;;;;;;;18.27;60.98;100288.91;8317628;28;20049;-49
2022/09/25 15:05:28;;;;;;;3.28;0.68;;;;;;;18.04;61.12;100277.31;8317278;28;20038;-49
2022/09/25 15:09:35;;;;;;;8.80;0.60;;;;;;;18.12;62.23;100279.94;8313504;28;20410;-49
2022/09/25 15:13:36;;;;;;;2.35;0.40;;;;;;;18.11;58.55;100275.50;8310835;28;20042;-53
2022/09/25 15:17:48;;;;;;;2.35;0.47;;;;;;;17.96;59.63;100274.69;8312077;28;20042;-51
2022/09/25 15:21:51;;;;;;;4.40;0.55;;;;;;;18.01;63.03;100272.25;8313017;28;20050;-51
2022/09/25 15:25:54;;;;;;;4.25;0.60;;;;;;;18.03;64.87;100264.69;8307588;28;20424;-50
2022/09/25 15:29:56;;;;;;;3.97;0.50;;;;;;;17.93;62.07;100266.06;8313095;28;20033;-50
2022/09/25 15:34:02;;;;;;;1.67;0.50;;;;;;;17.86;63.04;100268.72;8302518;28;20033;-53
2022/09/25 15:38:11;;;;;;;0.85;0.50;;;;;;;17.81;64.78;100270.34;8305245;28;20034;-50
2022/09/25 15:42:13;;;;;;;4.38;0.57;;;;;;;17.74;64.23;100270.25;8313135;28;20494;-49
2022/09/25 15:46:34;;;;;;;4.18;0.63;;;;;;;17.44;65.68;100268.59;8307859;28;20426;-50
2022/09/25 15:50:35;;;;;;;4.50;0.47;;;;;;;17.52;65.10;100254.84;8310551;28;20048;-51
2022/09/25 15:54:41;;;;;;;2.03;0.50;;;;;;;17.59;65.56;100251.16;8296869;28;20038;-49
2022/09/25 15:58:46;;;;;;;5.53;0.70;;;;;;;17.50;65.71;100251.44;8290096;28;20108;-50
2022/09/25 16:07:27;;;;;;;4.88;0.90;;;;;;;17.44;64.66;100254.94;8285568;28;20411;-50
2022/09/25 16:11:28;;;;;;;3.72;0.65;;;;;;;17.42;64.70;100248.81;8288485;28;20038;-53
2022/09/25 16:19:41;;;;;;;2.92;0.40;;;;;;;17.22;65.65;100247.69;8329230;27;20120;-51
2022/09/25 16:23:48;;;;;;;3.22;0.52;;;;;;;17.22;65.56;100255.88;8308321;28;20099;-52
2022/09/25 16:27:49;;;;;;;3.15;0.70;;;;;;;16.96;66.96;100253.63;8302457;28;20107;-49
2022/09/25 16:31:52;;;;;;;3.85;0.50;;;;;;;16.93;66.80;100264.09;8281070;28;20030;-49
2022/09/25 16:35:54;;;;;;;2.67;0.55;;;;;;;16.71;68.74;100262.28;8292586;28;20041;-49
2022/09/25 16:44:36;;;;;;;9.55;0.85;;;;;;;16.48;69.76;100256.00;8404324;27;20389;-50
2022/09/25 16:48:38;;;;;;;1.63;0.60;;;;;;;16.40;70.62;100256.91;8391867;28;20094;-51
2022/09/25 16:52:42;;;;;;;3.50;0.75;;;;;;;16.50;70.34;100251.22;8410610;28;20035;-49
2022/09/25 16:56:44;;;;;;;2.70;0.55;;;;;;;16.40;71.22;100256.03;8401048;28;20048;-53
2022/09/25 17:00:45;;;;;;;4.88;0.80;;;;;;;16.39;70.98;100260.66;8384188;28;20087;-50
2022/09/25 17:04:45;;;;;;;6.95;0.68;;;;;;;16.38;70.20;100258.94;8378277;28;20033;-50
2022/09/25 17:08:46;;;;;;;5.07;0.50;;;;;;;16.27;70.24;100266.72;8394347;28;20037;-48
2022/09/25 17:12:50;;;;;;;2.10;0.70;;;;;;;16.19;70.20;100258.63;8389489;28;20060;-50
2022/09/25 17:16:52;;;;;;;2.90;0.50;;;;;;;16.04;71.02;100261.28;8404520;28;20024;-51
2022/09/25 17:20:54;;;;;;;3.30;0.52;;;;;;;15.60;73.65;100265.66;8385617;28;20522;-49
2022/09/25 17:24:59;;;;;;;3.30;0.75;;;;;;;15.26;75.46;100265.13;8381479;28;20033;-54
2022/09/25 17:29:00;;;;;;;2.10;0.52;;;;;;;14.78;77.89;100266.13;8392420;28;20071;-49
2022/09/25 17:33:04;;;;;;;4.63;0.63;;;;;;;15.04;76.95;100261.28;8389214;28;20067;-52
2022/09/25 17:37:04;;;;;;;3.45;0.68;;;;;;;15.07;76.87;100271.81;8403231;28;20028;-50
2022/09/25 17:41:13;;;;;;;5.55;0.70;;;;;;;14.59;79.70;100271.97;8406622;28;20069;-50
2022/09/25 17:45:35;;;;;;;2.67;0.80;;;;;;;14.24;81.61;100266.03;8383305;28;20044;-49
2022/09/25 17:49:35;;;;;;;2.90;0.82;;;;;;;14.44;80.81;100268.22;8388334;28;20044;-51
2022/09/25 17:53:36;;;;;;;3.08;0.70;;;;;;;14.76;78.62;100261.91;8390470;28;20067;-50
2022/09/25 17:57:36;;;;;;;7.93;0.77;;;;;;;14.37;80.69;100267.22;8366925;28;20043;-51
2022/09/25 18:01:37;;;;;;;4.38;0.77;;;;;;;14.21;81.19;100279.94;8365202;28;20037;-50
2022/09/25 18:05:38;;;;;;;3.42;0.90;;;;;;;14.01;82.68;100273.13;8357927;28;20037;-52
2022/09/25 18:09:38;;;;;;;2.95;1.00;;;;;;;13.85;83.60;100274.78;8388040;28;20119;-50
2022/09/25 18:13:40;;;;;;;12.50;5.97;;;;;;;13.84;83.57;100277.66;8386559;28;20033;-53
2022/09/25 18:17:40;;;;;;;7.55;4.25;;;;;;;13.57;85.01;100269.78;8384993;28;20044;-54
2022/09/25 18:22:42;;;;;;;18.70;8.35;;;;;;;13.59;84.93;100265.91;8370393;28;20048;-51
2022/09/25 18:26:03;;;;;;;10.15;4.13;;;;;;;13.58;85.08;100274.22;8376323;28;20076;-51
2022/09/25 18:30:04;;;;;;;3.03;1.98;;;;;;;13.51;85.32;100273.19;8364937;28;20123;-52
2022/09/25 18:34:05;;;;;;;4.47;1.88;;;;;;;13.80;83.62;100268.16;8357614;28;20041;-53
2022/09/25 18:38:05;;;;;;;4.05;1.67;;;;;;;13.53;85.74;100271.16;8375120;28;20071;-51
2022/09/25 18:42:06;;;;;;;5.15;1.38;;;;;;;13.53;85.95;100268.44;8374168;28;20358;-50
2022/09/25 18:46:07;;;;;;;8.55;1.30;;;;;;;13.28;87.62;100267.53;8354974;28;20036;-52
2022/09/25 18:50:09;;;;;;;29.05;12.18;;;;;;;13.20;88.38;100269.31;8356028;28;20052;-49
2022/09/25 18:54:12;;;;;;;5.40;2.10;;;;;;;13.26;88.80;100268.66;8356672;28;20509;-53
2022/09/25 18:58:13;;;;;;;3.72;1.92;;;;;;;13.09;89.67;100270.47;8375366;28;20036;-52
2022/09/25 19:02:20;;;;;;;8.10;1.80;;;;;;;12.88;91.68;100274.56;8358373;28;20037;-51
2022/09/25 19:06:21;;;;;;;4.50;1.50;;;;;;;12.68;92.46;100268.53;8354367;28;20483;-53
2022/09/25 19:10:21;;;;;;;4.25;1.20;;;;;;;12.83;90.07;100260.63;8366022;28;20710;-49
2022/09/25 19:14:22;;;;;;;2.28;0.90;;;;;;;12.75;90.94;100263.31;8387136;28;20059;-51
2022/09/25 19:18:23;;;;;;;9.68;1.40;;;;;;;12.76;90.09;100263.16;8385510;28;20037;-53
2022/09/25 19:22:23;;;;;;;3.63;1.75;;;;;;;12.61;91.62;100261.19;8377251;28;20052;-52
2022/09/25 19:26:25;;;;;;;7.25;2.10;;;;;;;12.40;92.64;100257.97;8356686;28;20499;-52
2022/09/25 19:30:25;;;;;;;9.27;2.10;;;;;;;12.23;94.48;100256.19;8353223;28;20040;-52
2022/09/25 19:34:25;;;;;;;6.13;1.85;;;;;;;12.36;94.60;100256.63;8373229;28;20561;-50
2022/09/25 19:38:30;;;;;;;8.18;1.70;;;;;;;12.30;96.36;100257.25;8363627;28;20048;-53
2022/09/25 19:42:32;;;;;;;5.43;2.05;;;;;;;12.08;97.36;100247.78;8371515;28;20465;-51
2022/09/25 19:46:32;;;;;;;7.25;1.98;;;;;;;12.32;96.30;100256.06;8381176;28;20029;-51
2022/09/25 19:50:33;;;;;;;6.25;1.70;;;;;;;12.67;95.21;100249.69;8363497;28;20048;-50
2022/09/25 19:54:33;;;;;;;7.38;1.80;;;;;;;12.74;94.27;100239.91;8368823;28;20033;-54
2022/09/25 19:58:37;;;;;;;6.30;1.90;;;;;;;12.56;95.92;100241.84;8358174;28;20044;-55
2022/09/25 20:02:37;;;;;;;5.53;1.95;;;;;;;12.45;96.57;100242.09;8360235;28;20059;-52